Time;durP1;ratioP1;P1;durP2;ratioP2;P2;SDS_P1;SDS_P2;PMS_P1;PMS_P2;Temp;Humidity;BMP_temperature;BMP_pressure;BME280_temperature;BME280_humidity;BME280_pressure;Samples;Min_cycle;Max_cycle;Signal;HPM_P1;HPM_P2
2022/10/24 00:01:23;;;;;;;;;;;15.10;99.90;;;;;;5112309;28;19971;-64
2022/10/24 00:03:52;;;;;;;;;;;15.10;99.90;;;;;;5112555;28;20031;-64
2022/10/24 00:06:20;;;;;;;;;;;15.10;99.90;;;;;;5112832;28;19967;-63
2022/10/24 00:08:48;;;;;;;;;;;15.10;99.90;;;;;;5112637;28;19968;-64
2022/10/24 00:11:18;;;;;;;;;;;15.10;99.90;;;;;;5122768;27;20469;-64
2022/10/24 00:13:46;;;;;;;;;;;15.10;99.90;;;;;;5112688;28;20318;-64
2022/10/24 00:16:14;;;;;;;;;;;15.10;99.90;;;;;;5112370;28;19971;-64
2022/10/24 00:18:41;;;;;;;;;;;15.20;99.90;;;;;;5112880;28;19973;-64
2022/10/24 00:21:10;;;;;;;;;;;15.20;99.90;;;;;;5112352;28;19974;-64
2022/10/24 00:23:38;;;;;;;;;;;15.10;99.90;;;;;;5112168;28;19967;-64
2022/10/24 00:26:06;;;;;;;;;;;15.10;99.90;;;;;;5112411;28;19975;-64
2022/10/24 00:28:35;;;;;;;;;;;15.10;99.90;;;;;;5127953;22;20062;-63
2022/10/24 00:31:03;;;;;;;;;;;15.10;99.90;;;;;;5106160;28;20062;-62
2022/10/24 00:33:31;;;;;;;;;;;15.10;99.90;;;;;;5109506;28;19973;-62
2022/10/24 00:35:59;;;;;;;;;;;15.10;99.90;;;;;;5107038;28;19977;-63
2022/10/24 00:38:28;;;;;;;;;;;15.10;99.90;;;;;;5111921;28;19974;-63
2022/10/24 00:40:56;;;;;;;;;;;15.00;99.90;;;;;;5112286;28;20011;-62
2022/10/24 00:43:25;;;;;;;;;;;14.90;99.90;;;;;;5112350;28;20439;-63
2022/10/24 00:45:53;;;;;;;;;;;14.90;99.90;;;;;;5109135;28;19984;-63
2022/10/24 00:48:23;;;;;;;;;;;14.80;99.90;;;;;;5107198;28;19971;-63
2022/10/24 00:50:53;;;;;;;;;;;14.80;99.90;;;;;;5108477;28;19961;-63
2022/10/24 00:53:21;;;;;;;;;;;14.70;99.90;;;;;;5112026;28;19967;-63
2022/10/24 00:55:52;;;;;;;;;;;14.60;99.90;;;;;;5111870;28;19975;-62
2022/10/24 00:58:21;;;;;;;;;;;14.60;99.90;;;;;;5112410;28;19973;-63
2022/10/24 01:00:48;;;;;;;;;;;14.50;99.90;;;;;;5111181;28;19974;-63
2022/10/24 01:03:16;;;;;;;;;;;14.50;99.90;;;;;;5110159;28;19990;-63
2022/10/24 01:05:53;;;;;;;;;;;14.50;99.90;;;;;;5111984;28;20347;-63
2022/10/24 01:08:24;;;;;;;;;;;14.50;99.90;;;;;;5111931;28;19969;-63
2022/10/24 01:10:57;;;;;;;;;;;14.50;99.90;;;;;;5110967;28;19963;-63
2022/10/24 01:13:31;;;;;;;;;;;14.50;99.90;;;;;;5112108;28;20432;-63
2022/10/24 01:16:04;;;;;;;;;;;14.40;99.90;;;;;;5112184;28;19977;-63
2022/10/24 01:18:34;;;;;;;;;;;14.40;99.90;;;;;;5111732;28;19974;-63
2022/10/24 01:21:06;;;;;;;;;;;14.40;99.90;;;;;;5111485;28;20442;-63
2022/10/24 01:23:49;;;;;;;;;;;14.30;99.90;;;;;;5112105;28;19973;-63
2022/10/24 01:26:34;;;;;;;;;;;14.30;99.90;;;;;;5094245;28;20494;-63
2022/10/24 01:29:07;;;;;;;;;;;14.20;99.90;;;;;;5111828;28;20065;-62
2022/10/24 01:31:40;;;;;;;;;;;14.10;99.90;;;;;;5111414;28;19969;-63
2022/10/24 01:34:15;;;;;;;;;;;14.10;99.90;;;;;;5111993;28;19966;-63
2022/10/24 01:36:45;;;;;;;;;;;14.10;99.90;;;;;;5111309;28;20347;-63
2022/10/24 01:39:15;;;;;;;;;;;14.20;99.90;;;;;;5111998;28;19973;-63
2022/10/24 01:41:43;;;;;;;;;;;14.20;99.90;;;;;;5111506;28;19971;-63
2022/10/24 01:44:13;;;;;;;;;;;14.20;99.90;;;;;;5111910;28;19977;-63
2022/10/24 01:46:44;;;;;;;;;;;14.20;99.90;;;;;;5111492;28;19969;-63
2022/10/24 01:49:13;;;;;;;;;;;14.20;99.90;;;;;;5112543;28;19967;-63
2022/10/24 01:51:41;;;;;;;;;;;14.20;99.90;;;;;;5115172;28;19971;-63
2022/10/24 01:54:09;;;;;;;;;;;14.20;99.90;;;;;;5115590;28;19971;-63
2022/10/24 01:56:37;;;;;;;;;;;14.20;99.90;;;;;;5115360;28;20402;-63
2022/10/24 01:59:05;;;;;;;;;;;14.20;99.90;;;;;;5115313;28;20432;-63
2022/10/24 02:01:35;;;;;;;;;;;14.20;99.90;;;;;;5114311;28;19963;-63
2022/10/24 02:04:07;;;;;;;;;;;14.20;99.90;;;;;;5120629;27;20010;-63
2022/10/24 02:06:37;;;;;;;;;;;14.20;99.90;;;;;;5105254;28;19963;-63
2022/10/24 02:09:07;;;;;;;;;;;14.20;99.90;;;;;;5113455;28;19967;-63
2022/10/24 02:11:35;;;;;;;;;;;14.20;99.90;;;;;;5114500;28;20069;-62
2022/10/24 02:14:05;;;;;;;;;;;14.10;99.90;;;;;;5115176;28;19967;-63
2022/10/24 02:16:34;;;;;;;;;;;14.10;99.90;;;;;;5113734;28;19963;-64
2022/10/24 02:19:02;;;;;;;;;;;14.10;99.90;;;;;;5110492;27;19968;-63
2022/10/24 02:21:32;;;;;;;;;;;14.10;99.90;;;;;;5114197;28;19989;-63
2022/10/24 02:24:01;;;;;;;;;;;14.10;99.90;;;;;;5114875;28;20376;-63
2022/10/24 02:26:32;;;;;;;;;;;14.10;99.90;;;;;;5114808;28;20415;-64
2022/10/24 02:29:02;;;;;;;;;;;14.00;99.90;;;;;;5094435;28;20105;-64
2022/10/24 02:31:32;;;;;;;;;;;14.00;99.90;;;;;;5109700;28;20421;-64
2022/10/24 02:34:00;;;;;;;;;;;13.90;99.90;;;;;;5108501;28;20057;-64
2022/10/24 02:36:29;;;;;;;;;;;13.90;99.90;;;;;;5106117;28;20406;-64
2022/10/24 02:38:59;;;;;;;;;;;14.00;99.90;;;;;;5116519;28;19967;-63
2022/10/24 02:41:28;;;;;;;;;;;14.00;99.90;;;;;;5113877;28;19966;-65
2022/10/24 02:43:56;;;;;;;;;;;14.00;99.90;;;;;;5115371;27;19974;-62
2022/10/24 02:46:24;;;;;;;;;;;14.00;99.90;;;;;;5114283;28;19978;-63
2022/10/24 02:48:54;;;;;;;;;;;13.90;99.90;;;;;;5112437;27;19963;-63
2022/10/24 02:51:22;;;;;;;;;;;13.90;99.90;;;;;;5111907;27;19966;-63
2022/10/24 02:53:50;;;;;;;;;;;13.70;99.90;;;;;;5113879;27;19967;-63
2022/10/24 02:56:19;;;;;;;;;;;13.80;99.90;;;;;;5125879;27;19967;-63
2022/10/24 02:58:47;;;;;;;;;;;13.80;99.90;;;;;;5113977;27;19963;-63
2022/10/24 03:01:15;;;;;;;;;;;13.80;99.90;;;;;;5117034;27;19971;-63
2022/10/24 03:03:43;;;;;;;;;;;13.80;99.90;;;;;;5111656;28;19963;-62
2022/10/24 03:06:10;;;;;;;;;;;13.80;99.90;;;;;;5111911;28;19967;-62
2022/10/24 03:08:38;;;;;;;;;;;13.70;99.90;;;;;;5110654;27;19963;-63
2022/10/24 03:11:06;;;;;;;;;;;13.70;99.90;;;;;;5113714;28;19967;-63
2022/10/24 03:13:35;;;;;;;;;;;13.70;99.90;;;;;;5113436;28;19963;-63
2022/10/24 03:16:04;;;;;;;;;;;13.80;99.90;;;;;;5113900;28;19975;-63
2022/10/24 03:18:36;;;;;;;;;;;13.90;99.90;;;;;;5113586;28;19967;-63
2022/10/24 03:21:04;;;;;;;;;;;13.80;99.90;;;;;;5113750;28;19967;-62
2022/10/24 03:23:32;;;;;;;;;;;13.80;99.90;;;;;;5113690;28;19969;-63
2022/10/24 03:26:00;;;;;;;;;;;13.80;99.90;;;;;;5114608;28;19971;-62
2022/10/24 03:28:27;;;;;;;;;;;13.90;99.90;;;;;;5130919;27;19971;-62
2022/10/24 03:30:56;;;;;;;;;;;13.90;99.90;;;;;;5123294;27;19967;-62
2022/10/24 03:33:24;;;;;;;;;;;13.90;99.90;;;;;;5113906;28;19983;-63
2022/10/24 03:35:52;;;;;;;;;;;13.90;99.90;;;;;;5113442;28;19997;-63
2022/10/24 03:38:20;;;;;;;;;;;13.90;99.90;;;;;;5113378;28;20011;-63
2022/10/24 03:40:48;;;;;;;;;;;13.90;99.90;;;;;;5113446;28;19979;-62
2022/10/24 03:43:16;;;;;;;;;;;13.90;99.90;;;;;;5116288;27;19970;-63
2022/10/24 03:45:43;;;;;;;;;;;13.90;99.90;;;;;;5133989;27;19976;-63
2022/10/24 03:48:12;;;;;;;;;;;13.80;99.90;;;;;;5133778;27;20451;-63
2022/10/24 03:50:40;;;;;;;;;;;14.00;99.90;;;;;;5133695;27;20046;-63
2022/10/24 03:53:08;;;;;;;;;;;14.00;99.90;;;;;;5118764;27;19980;-63
2022/10/24 03:55:35;;;;;;;;;;;14.00;99.90;;;;;;5113183;28;20442;-63
2022/10/24 03:58:03;;;;;;;;;;;14.10;99.90;;;;;;5113126;28;19967;-63
2022/10/24 04:00:33;;;;;;;;;;;14.10;99.90;;;;;;5112809;28;20000;-63
2022/10/24 04:03:02;;;;;;;;;;;14.20;99.90;;;;;;5113233;27;19974;-64
2022/10/24 04:05:31;;;;;;;;;;;14.20;99.90;;;;;;5129122;27;20036;-62
2022/10/24 04:07:58;;;;;;;;;;;14.30;99.90;;;;;;5130976;27;19970;-62
2022/10/24 04:10:26;;;;;;;;;;;14.20;99.90;;;;;;5115769;27;19969;-62
2022/10/24 04:12:54;;;;;;;;;;;14.30;99.90;;;;;;5116805;27;19974;-62
2022/10/24 04:15:21;;;;;;;;;;;14.30;99.90;;;;;;5113604;27;19971;-62
2022/10/24 04:17:49;;;;;;;;;;;14.30;99.90;;;;;;5132455;27;19965;-62
2022/10/24 04:20:19;;;;;;;;;;;14.30;99.90;;;;;;5132989;27;19970;-62
2022/10/24 04:22:48;;;;;;;;;;;14.30;99.90;;;;;;5133121;27;19990;-62
2022/10/24 04:25:16;;;;;;;;;;;14.30;99.90;;;;;;5119081;27;19967;-63
2022/10/24 04:27:44;;;;;;;;;;;14.20;99.90;;;;;;5112157;27;20339;-63
2022/10/24 04:30:13;;;;;;;;;;;14.20;99.90;;;;;;5098177;28;19970;-63
2022/10/24 04:32:43;;;;;;;;;;;14.20;99.90;;;;;;5103596;28;19967;-62
2022/10/24 04:35:12;;;;;;;;;;;14.20;99.90;;;;;;5095837;28;19970;-63
2022/10/24 04:37:40;;;;;;;;;;;14.10;99.90;;;;;;5092084;28;20457;-62
2022/10/24 04:40:10;;;;;;;;;;;14.10;99.90;;;;;;5091890;28;19968;-63
2022/10/24 04:42:37;;;;;;;;;;;14.20;99.90;;;;;;5090679;28;19967;-63
2022/10/24 04:45:06;;;;;;;;;;;14.10;99.90;;;;;;5091878;28;19967;-62
2022/10/24 04:47:33;;;;;;;;;;;14.10;99.90;;;;;;5091982;28;19968;-63
2022/10/24 04:50:01;;;;;;;;;;;14.20;99.90;;;;;;5092042;28;20168;-63
2022/10/24 04:52:29;;;;;;;;;;;14.20;99.90;;;;;;5092010;28;19971;-63
2022/10/24 04:54:57;;;;;;;;;;;14.30;99.90;;;;;;5092117;28;19978;-63
2022/10/24 04:57:26;;;;;;;;;;;14.30;99.90;;;;;;5091884;28;19968;-63
2022/10/24 04:59:53;;;;;;;;;;;14.30;99.90;;;;;;5091183;28;20329;-63
2022/10/24 05:02:21;;;;;;;;;;;14.40;99.90;;;;;;5081934;28;20020;-63
2022/10/24 05:04:49;;;;;;;;;;;14.50;99.90;;;;;;5071722;28;19968;-63
2022/10/24 05:07:19;;;;;;;;;;;14.50;99.90;;;;;;5071782;28;19971;-63
2022/10/24 05:09:47;;;;;;;;;;;14.50;99.90;;;;;;5071448;28;20391;-63
2022/10/24 05:12:15;;;;;;;;;;;14.50;99.90;;;;;;5071472;28;19972;-64
2022/10/24 05:14:45;;;;;;;;;;;14.50;99.90;;;;;;5071468;28;19980;-63
2022/10/24 05:17:13;;;;;;;;;;;14.50;99.90;;;;;;5076578;28;19963;-64
2022/10/24 05:19:41;;;;;;;;;;;14.40;99.90;;;;;;5081141;28;19969;-64
2022/10/24 05:22:09;;;;;;;;;;;14.40;99.90;;;;;;5084666;28;19982;-63
2022/10/24 05:24:37;;;;;;;;;;;14.30;99.90;;;;;;5084722;28;20023;-63
2022/10/24 05:27:05;;;;;;;;;;;14.30;99.90;;;;;;5088976;28;19975;-63
2022/10/24 05:29:33;;;;;;;;;;;14.30;99.90;;;;;;5103357;28;19962;-63
2022/10/24 05:32:02;;;;;;;;;;;14.30;99.90;;;;;;5098147;28;19963;-63
2022/10/24 05:34:30;;;;;;;;;;;14.20;99.90;;;;;;5096220;28;19967;-63
2022/10/24 05:36:57;;;;;;;;;;;14.20;99.90;;;;;;5098599;28;19969;-63
2022/10/24 05:39:25;;;;;;;;;;;14.10;99.90;;;;;;5099477;28;19962;-64
2022/10/24 05:41:53;;;;;;;;;;;14.20;99.90;;;;;;5091098;28;20084;-63
2022/10/24 05:44:22;;;;;;;;;;;14.10;99.90;;;;;;5099736;28;19963;-63
2022/10/24 05:46:49;;;;;;;;;;;14.20;99.90;;;;;;5101083;28;19963;-64
2022/10/24 05:49:19;;;;;;;;;;;14.10;99.90;;;;;;5093790;28;19970;-63
2022/10/24 05:51:46;;;;;;;;;;;14.20;99.90;;;;;;5090014;28;19972;-63
2022/10/24 05:54:14;;;;;;;;;;;14.10;99.90;;;;;;5091489;28;19973;-64
2022/10/24 05:56:42;;;;;;;;;;;14.10;99.90;;;;;;5088203;28;19972;-63
2022/10/24 05:59:10;;;;;;;;;;;14.10;99.90;;;;;;5090876;28;20331;-63
2022/10/24 06:01:37;;;;;;;;;;;14.20;99.90;;;;;;5091104;28;20335;-64
2022/10/24 06:04:05;;;;;;;;;;;14.10;99.90;;;;;;5088793;28;19967;-64
2022/10/24 06:06:39;;;;;;;;;;;14.10;99.90;;;;;;5088544;28;19963;-63
2022/10/24 06:09:07;;;;;;;;;;;14.10;99.90;;;;;;5088855;28;19967;-63
2022/10/24 06:11:35;;;;;;;;;;;14.10;99.90;;;;;;5093309;28;19969;-63
2022/10/24 06:14:03;;;;;;;;;;;14.10;99.90;;;;;;5094527;28;19971;-64
2022/10/24 06:16:32;;;;;;;;;;;14.00;99.90;;;;;;5093401;28;19969;-63
2022/10/24 06:19:00;;;;;;;;;;;14.00;99.90;;;;;;5093266;28;19982;-63
2022/10/24 06:21:28;;;;;;;;;;;14.00;99.90;;;;;;5092083;28;20394;-63
2022/10/24 06:23:57;;;;;;;;;;;13.90;99.90;;;;;;5093166;28;20472;-63
2022/10/24 06:26:25;;;;;;;;;;;13.80;99.90;;;;;;5090756;28;19990;-63
2022/10/24 06:28:53;;;;;;;;;;;13.80;99.90;;;;;;5124235;22;20351;-69
2022/10/24 06:31:21;;;;;;;;;;;13.80;99.90;;;;;;5107662;28;19971;-69
2022/10/24 06:33:49;;;;;;;;;;;13.90;99.90;;;;;;5106407;28;19963;-69
2022/10/24 06:36:16;;;;;;;;;;;13.80;99.90;;;;;;5104663;28;19967;-69
2022/10/24 06:38:44;;;;;;;;;;;13.90;99.90;;;;;;5108901;28;20379;-69
2022/10/24 06:41:15;;;;;;;;;;;13.90;99.90;;;;;;5102215;28;19993;-69
2022/10/24 06:43:43;;;;;;;;;;;13.90;99.90;;;;;;5101352;28;20078;-69
2022/10/24 06:46:13;;;;;;;;;;;14.00;99.90;;;;;;5101508;28;19975;-69
2022/10/24 06:48:41;;;;;;;;;;;14.00;99.90;;;;;;5085722;28;20069;-69
2022/10/24 06:51:09;;;;;;;;;;;14.00;99.90;;;;;;5088378;28;20519;-68
2022/10/24 06:53:37;;;;;;;;;;;14.00;99.90;;;;;;5104644;28;20481;-69
2022/10/24 06:56:05;;;;;;;;;;;14.00;99.90;;;;;;5097868;28;20464;-70
2022/10/24 06:58:34;;;;;;;;;;;14.10;99.90;;;;;;5094146;28;19971;-68
2022/10/24 07:01:07;;;;;;;;;;;14.10;99.90;;;;;;5093829;28;19972;-69
2022/10/24 07:03:35;;;;;;;;;;;14.10;99.90;;;;;;5078606;28;20002;-69
2022/10/24 07:06:05;;;;;;;;;;;14.10;99.90;;;;;;5073723;28;20418;-69
2022/10/24 07:08:33;;;;;;;;;;;14.10;99.90;;;;;;5073342;28;19968;-69
2022/10/24 07:11:00;;;;;;;;;;;14.10;99.90;;;;;;5083221;28;19968;-69
2022/10/24 07:13:29;;;;;;;;;;;14.10;99.90;;;;;;5093428;28;19973;-69
2022/10/24 07:15:58;;;;;;;;;;;14.20;99.90;;;;;;5087358;28;20331;-69
2022/10/24 07:18:25;;;;;;;;;;;14.20;99.90;;;;;;5089123;28;19967;-70
2022/10/24 07:20:53;;;;;;;;;;;14.30;99.90;;;;;;5077365;28;20681;-69
2022/10/24 07:23:21;;;;;;;;;;;14.20;99.90;;;;;;5092949;28;20359;-69
2022/10/24 07:25:48;;;;;;;;;;;14.10;99.90;;;;;;5084412;28;19964;-69
2022/10/24 07:28:16;;;;;;;;;;;14.00;99.90;;;;;;5084018;28;19974;-68
2022/10/24 07:30:44;;;;;;;;;;;13.90;99.90;;;;;;5084109;28;19970;-71
2022/10/24 07:33:15;;;;;;;;;;;13.90;99.90;;;;;;5093188;28;19982;-69
2022/10/24 07:35:43;;;;;;;;;;;13.90;99.90;;;;;;5087303;28;19963;-73
2022/10/24 07:38:10;;;;;;;;;;;14.00;99.90;;;;;;5089404;28;20055;-69
2022/10/24 07:40:44;;;;;;;;;;;13.90;99.90;;;;;;5084045;28;20499;-72
2022/10/24 07:43:12;;;;;;;;;;;14.00;99.90;;;;;;5099653;28;19976;-73
2022/10/24 07:45:40;;;;;;;;;;;14.00;99.90;;;;;;5102961;28;19977;-72
2022/10/24 07:48:09;;;;;;;;;;;14.10;99.90;;;;;;5095599;28;19975;-71
2022/10/24 07:50:42;;;;;;;;;;;14.20;99.90;;;;;;5088401;28;19969;-72
2022/10/24 07:53:10;;;;;;;;;;;14.30;99.90;;;;;;5086790;28;20454;-74
2022/10/24 07:55:38;;;;;;;;;;;14.40;99.90;;;;;;5086174;28;19963;-75
2022/10/24 07:58:05;;;;;;;;;;;14.40;99.90;;;;;;5086687;28;20066;-74
2022/10/24 08:00:33;;;;;;;;;;;14.50;99.90;;;;;;5078254;28;19966;-74
2022/10/24 08:03:01;;;;;;;;;;;14.60;99.90;;;;;;5071693;28;20020;-73
2022/10/24 08:05:29;;;;;;;;;;;14.70;99.90;;;;;;5082230;28;19968;-73
2022/10/24 08:07:58;;;;;;;;;;;14.70;99.90;;;;;;5078318;28;19976;-72
2022/10/24 08:10:46;;;;;;;;;;;14.70;99.90;;;;;;5071698;28;19970;-73
2022/10/24 08:13:13;;;;;;;;;;;14.90;99.90;;;;;;5089272;28;20382;-74
2022/10/24 08:15:41;;;;;;;;;;;14.80;99.90;;;;;;5088979;28;19963;-74
2022/10/24 08:18:09;;;;;;;;;;;14.90;99.90;;;;;;5086488;28;19967;-73
2022/10/24 08:20:37;;;;;;;;;;;14.80;99.90;;;;;;5100799;28;19967;-72
2022/10/24 08:23:06;;;;;;;;;;;15.00;99.90;;;;;;5097451;28;19976;-71
2022/10/24 08:25:34;;;;;;;;;;;15.10;99.90;;;;;;5092641;28;19963;-72
2022/10/24 08:28:01;;;;;;;;;;;15.20;99.90;;;;;;5086712;28;19994;-70
2022/10/24 08:30:34;;;;;;;;;;;15.30;99.90;;;;;;5088672;28;20010;-74
2022/10/24 08:33:02;;;;;;;;;;;15.40;99.90;;;;;;5090452;28;20392;-74
2022/10/24 08:35:30;;;;;;;;;;;15.40;99.90;;;;;;5093721;28;19968;-72
2022/10/24 08:37:57;;;;;;;;;;;15.50;99.90;;;;;;5097346;28;19967;-74
2022/10/24 08:40:27;;;;;;;;;;;15.60;99.90;;;;;;5098585;28;20390;-72
2022/10/24 08:42:54;;;;;;;;;;;15.80;99.90;;;;;;5086929;28;19968;-73
2022/10/24 08:45:26;;;;;;;;;;;16.00;99.90;;;;;;5088005;28;20346;-71
2022/10/24 08:47:58;;;;;;;;;;;16.20;99.90;;;;;;5088828;28;19978;-73
2022/10/24 08:50:27;;;;;;;;;;;16.40;99.90;;;;;;5098240;28;19973;-74
2022/10/24 08:52:58;;;;;;;;;;;16.50;99.90;;;;;;5102909;28;19966;-74
2022/10/24 08:55:29;;;;;;;;;;;16.60;99.90;;;;;;5099495;28;20446;-76
2022/10/24 08:58:17;;;;;;;;;;;16.70;99.90;;;;;;5092404;28;19962;-71
2022/10/24 09:00:46;;;;;;;;;;;16.80;99.90;;;;;;5080792;28;19966;-72
2022/10/24 09:03:18;;;;;;;;;;;16.90;99.90;;;;;;5079198;28;19962;-73
2022/10/24 09:06:07;;;;;;;;;;;16.90;99.90;;;;;;5078847;28;19974;-73
2022/10/24 09:08:38;;;;;;;;;;;17.00;99.90;;;;;;5073558;28;19979;-74
2022/10/24 09:11:07;;;;;;;;;;;17.00;99.90;;;;;;5074173;28;19981;-73
2022/10/24 09:13:36;;;;;;;;;;;17.00;99.90;;;;;;5079988;28;19970;-72
2022/10/24 09:16:04;;;;;;;;;;;17.10;99.90;;;;;;5077588;28;19974;-73
2022/10/24 09:18:34;;;;;;;;;;;17.10;99.90;;;;;;5084363;28;19981;-73
2022/10/24 09:21:02;;;;;;;;;;;17.10;99.90;;;;;;5079135;28;19977;-73
2022/10/24 09:23:32;;;;;;;;;;;17.00;99.90;;;;;;5081708;28;21920;-72
2022/10/24 09:26:00;;;;;;;;;;;16.90;99.90;;;;;;5084876;28;19974;-72
2022/10/24 09:28:29;;;;;;;;;;;17.10;99.90;;;;;;5081169;28;19966;-70
2022/10/24 09:30:57;;;;;;;;;;;17.40;99.90;;;;;;5075972;28;20008;-73
2022/10/24 09:33:27;;;;;;;;;;;17.90;99.90;;;;;;5083181;28;19974;-73
2022/10/24 09:35:57;;;;;;;;;;;18.20;99.90;;;;;;5079414;28;19975;-72
2022/10/24 09:38:26;;;;;;;;;;;18.40;99.90;;;;;;5081396;28;20765;-72
2022/10/24 09:40:55;;;;;;;;;;;18.40;99.90;;;;;;5073659;28;20055;-72
2022/10/24 09:43:32;;;;;;;;;;;18.50;99.90;;;;;;5067320;28;20439;-72
2022/10/24 09:46:03;;;;;;;;;;;18.40;99.90;;;;;;5078311;28;20451;-73
2022/10/24 09:48:34;;;;;;;;;;;18.50;99.90;;;;;;5072028;28;19974;-72
2022/10/24 09:51:03;;;;;;;;;;;18.50;99.90;;;;;;5076643;28;20013;-73
2022/10/24 09:53:32;;;;;;;;;;;18.50;99.90;;;;;;5077696;28;20358;-73
2022/10/24 09:56:01;;;;;;;;;;;18.40;99.90;;;;;;5074793;28;20440;-73
2022/10/24 09:58:32;;;;;;;;;;;18.30;99.90;;;;;;5073369;28;19985;-73
2022/10/24 10:01:03;;;;;;;;;;;18.20;99.90;;;;;;5071436;28;19970;-72
2022/10/24 10:03:31;;;;;;;;;;;18.10;99.90;;;;;;5079868;28;19970;-74
2022/10/24 10:06:00;;;;;;;;;;;18.10;99.90;;;;;;5080064;28;19980;-73
2022/10/24 10:08:29;;;;;;;;;;;18.20;99.90;;;;;;5082602;28;20444;-73
2022/10/24 10:10:59;;;;;;;;;;;18.20;99.90;;;;;;5076300;28;20009;-72
2022/10/24 10:13:27;;;;;;;;;;;18.60;99.90;;;;;;5085850;28;20361;-72
2022/10/24 10:15:56;;;;;;;;;;;18.80;99.90;;;;;;5100900;28;19970;-72
2022/10/24 10:18:31;;;;;;;;;;;19.10;99.90;;;;;;5109965;28;19970;-72
2022/10/24 10:21:00;;;;;;;;;;;19.50;99.90;;;;;;5096580;28;19972;-73
2022/10/24 10:23:30;;;;;;;;;;;19.90;99.90;;;;;;5078885;28;19969;-75
2022/10/24 10:26:05;;;;;;;;;;;20.20;99.90;;;;;;5099284;28;20010;-72
2022/10/24 10:28:34;;;;;;;;;;;20.10;99.90;;;;;;5094060;28;19968;-72
2022/10/24 10:31:02;;;;;;;;;;;19.80;99.90;;;;;;5096619;28;19976;-72
2022/10/24 10:33:35;;;;;;;;;;;19.70;99.90;;;;;;5099787;28;19970;-72
2022/10/24 10:36:11;;;;;;;;;;;19.80;99.90;;;;;;5100598;28;19965;-72
2022/10/24 10:38:57;;;;;;;;;;;19.80;99.90;;;;;;5088575;28;20057;-72
2022/10/24 10:41:33;;;;;;;;;;;19.70;99.90;;;;;;5086957;28;19970;-72
2022/10/24 10:44:10;;;;;;;;;;;19.60;99.90;;;;;;5102465;28;19972;-72
2022/10/24 10:46:43;;;;;;;;;;;19.50;99.90;;;;;;5088949;28;20050;-72
2022/10/24 10:49:15;;;;;;;;;;;19.30;99.90;;;;;;5089785;28;20057;-69
2022/10/24 10:51:44;;;;;;;;;;;19.20;99.90;;;;;;5092219;28;19962;-71
2022/10/24 10:54:21;;;;;;;;;;;19.10;99.90;;;;;;5087369;28;19996;-72
2022/10/24 10:56:51;;;;;;;;;;;19.10;99.90;;;;;;5088804;28;19970;-72
2022/10/24 10:59:26;;;;;;;;;;;19.20;99.90;;;;;;5082924;28;19962;-71
2022/10/24 11:01:59;;;;;;;;;;;19.20;99.90;;;;;;5080768;28;19978;-72
2022/10/24 11:04:33;;;;;;;;;;;19.20;99.90;;;;;;5062624;28;20049;-72
2022/10/24 11:07:03;;;;;;;;;;;19.30;99.90;;;;;;5083391;28;19974;-72
2022/10/24 11:09:36;;;;;;;;;;;19.40;99.90;;;;;;5083768;28;20345;-70
2022/10/24 11:12:07;;;;;;;;;;;19.40;99.90;;;;;;5083613;28;19973;-72
2022/10/24 11:14:36;;;;;;;;;;;19.40;99.90;;;;;;5093002;28;20056;-72
2022/10/24 11:17:10;;;;;;;;;;;19.50;99.90;;;;;;5092827;28;19966;-72
2022/10/24 11:19:47;;;;;;;;;;;19.50;99.90;;;;;;5092415;28;20332;-71
2022/10/24 11:22:18;;;;;;;;;;;19.50;99.90;;;;;;5091050;28;19969;-72
2022/10/24 11:24:50;;;;;;;;;;;19.40;99.90;;;;;;5092573;28;20004;-72
2022/10/24 11:27:21;;;;;;;;;;;19.40;99.90;;;;;;5092898;28;20401;-72
2022/10/24 11:29:53;;;;;;;;;;;19.30;99.90;;;;;;5091845;28;20053;-72
2022/10/24 11:32:23;;;;;;;;;;;19.30;99.90;;;;;;5092512;28;19970;-72
2022/10/24 11:34:55;;;;;;;;;;;19.50;99.90;;;;;;5092558;28;19969;-72
2022/10/24 11:37:27;;;;;;;;;;;19.80;99.90;;;;;;5083521;28;19962;-72
2022/10/24 11:39:56;;;;;;;;;;;19.90;99.90;;;;;;5074037;28;19984;-73
2022/10/24 11:42:27;;;;;;;;;;;20.00;99.90;;;;;;5091987;28;19966;-72
2022/10/24 11:44:58;;;;;;;;;;;20.10;99.90;;;;;;5092271;28;20492;-72
2022/10/24 11:47:37;;;;;;;;;;;20.00;99.90;;;;;;5092331;28;20431;-73
2022/10/24 11:50:11;;;;;;;;;;;20.40;99.90;;;;;;5092048;28;20350;-73
2022/10/24 11:52:41;;;;;;;;;;;21.00;99.90;;;;;;5091452;28;20015;-73
2022/10/24 11:55:14;;;;;;;;;;;21.50;99.90;;;;;;5091815;28;19966;-73
2022/10/24 11:57:43;;;;;;;;;;;22.10;99.90;;;;;;5092309;28;20013;-73
2022/10/24 12:00:16;;;;;;;;;;;22.50;99.90;;;;;;5091976;28;20065;-73
2022/10/24 12:03:07;;;;;;;;;;;22.70;99.90;;;;;;5091994;28;19968;-72
2022/10/24 12:05:44;;;;;;;;;;;22.60;99.90;;;;;;5088480;28;20065;-72
2022/10/24 12:08:27;;;;;;;;;;;22.40;99.90;;;;;;5088759;28;20296;-72
2022/10/24 12:11:02;;;;;;;;;;;22.30;99.90;;;;;;5091821;28;20060;-72
2022/10/24 12:13:38;;;;;;;;;;;21.90;99.90;;;;;;5091102;28;20179;-72
2022/10/24 12:16:11;;;;;;;;;;;21.50;99.90;;;;;;5091484;28;20424;-72
2022/10/24 12:18:40;;;;;;;;;;;21.10;99.90;;;;;;5091689;28;20027;-73
2022/10/24 12:21:11;;;;;;;;;;;20.70;99.90;;;;;;5091233;28;19966;-73
2022/10/24 12:23:40;;;;;;;;;;;20.40;99.90;;;;;;5091276;28;19976;-72
2022/10/24 12:26:08;;;;;;;;;;;20.30;99.90;;;;;;5091701;28;20524;-72
2022/10/24 12:28:37;;;;;;;;;;;20.10;99.90;;;;;;5178990;22;19969;-64
2022/10/24 12:31:09;;;;;;;;;;;19.90;99.90;;;;;;5097907;28;19972;-64
2022/10/24 12:33:37;;;;;;;;;;;20.00;99.90;;;;;;5090919;28;19970;-67
2022/10/24 12:36:04;;;;;;;;;;;20.20;99.90;;;;;;5099027;28;19966;-64
2022/10/24 12:39:06;;;;;;;;;;;20.20;99.90;;;;;;5091692;28;20444;-65
2022/10/24 12:41:41;;;;;;;;;;;20.20;99.90;;;;;;5092937;28;19970;-64
2022/10/24 12:44:28;;;;;;;;;;;20.70;99.90;;;;;;5111785;28;19969;-65
2022/10/24 12:46:56;;;;;;;;;;;21.40;99.90;;;;;;5111889;28;19973;-64
2022/10/24 12:49:28;;;;;;;;;;;22.00;99.90;;;;;;5111822;28;19972;-64
2022/10/24 12:51:56;;;;;;;;;;;22.50;99.90;;;;;;5111119;28;19996;-65
2022/10/24 12:54:38;;;;;;;;;;;22.80;99.90;;;;;;5111532;28;20370;-64
2022/10/24 12:57:21;;;;;;;;;;;23.10;99.90;;;;;;5110998;28;19966;-64
2022/10/24 12:59:49;;;;;;;;;;;23.40;99.90;;;;;;5111334;28;20065;-64
2022/10/24 13:02:24;;;;;;;;;;;23.50;99.90;;;;;;5098754;28;20003;-65
2022/10/24 13:04:58;;;;;;;;;;;23.40;99.90;;;;;;5090570;28;19971;-64
2022/10/24 13:07:50;;;;;;;;;;;23.20;99.90;;;;;;5091426;28;20427;-65
2022/10/24 13:10:36;;;;;;;;;;;22.70;99.90;;;;;;5067314;28;20425;-64
2022/10/24 13:13:31;;;;;;;;;;;22.30;99.90;;;;;;5088019;28;19973;-65
2022/10/24 13:16:03;;;;;;;;;;;21.70;99.90;;;;;;5035234;28;19970;-64
2022/10/24 13:18:39;;;;;;;;;;;21.30;99.90;;;;;;5108505;28;19966;-65
2022/10/24 13:21:13;;;;;;;;;;;21.10;99.90;;;;;;5088880;28;19966;-64
2022/10/24 13:23:42;;;;;;;;;;;21.10;99.90;;;;;;5082967;28;19969;-65
2022/10/24 13:26:26;;;;;;;;;;;20.90;99.90;;;;;;5090768;28;20314;-64
2022/10/24 13:28:54;;;;;;;;;;;20.90;99.90;;;;;;5090845;28;20334;-64
2022/10/24 13:31:45;;;;;;;;;;;20.70;99.90;;;;;;5081483;28;19973;-64
2022/10/24 13:34:19;;;;;;;;;;;20.70;99.90;;;;;;5090673;28;20467;-65
2022/10/24 13:36:48;;;;;;;;;;;20.50;99.90;;;;;;5100030;28;19968;-64
2022/10/24 13:39:17;;;;;;;;;;;20.40;99.90;;;;;;5087642;28;19972;-64
2022/10/24 13:41:47;;;;;;;;;;;20.30;99.90;;;;;;5090813;28;19966;-64
2022/10/24 13:44:20;;;;;;;;;;;20.20;99.90;;;;;;5088883;28;20429;-64
2022/10/24 13:46:51;;;;;;;;;;;20.00;99.90;;;;;;5092006;28;20065;-65
2022/10/24 13:49:25;;;;;;;;;;;20.00;99.90;;;;;;5090955;28;19969;-64
2022/10/24 13:51:54;;;;;;;;;;;20.00;99.90;;;;;;5091828;28;19966;-65
2022/10/24 13:54:24;;;;;;;;;;;19.90;99.90;;;;;;5092175;28;19962;-64
2022/10/24 13:56:52;;;;;;;;;;;19.90;99.90;;;;;;5093057;28;19966;-64
2022/10/24 13:59:27;;;;;;;;;;;19.80;99.90;;;;;;5091508;28;19973;-64
2022/10/24 14:01:58;;;;;;;;;;;19.80;99.90;;;;;;5092845;28;20001;-64
2022/10/24 14:04:27;;;;;;;;;;;19.90;99.90;;;;;;5093329;28;19966;-64
2022/10/24 14:06:59;;;;;;;;;;;19.80;99.90;;;;;;5093396;28;20381;-64
2022/10/24 14:09:27;;;;;;;;;;;19.80;99.90;;;;;;5098694;28;20438;-64
2022/10/24 14:11:56;;;;;;;;;;;19.70;99.90;;;;;;5093242;28;20026;-64
2022/10/24 14:14:27;;;;;;;;;;;19.70;99.90;;;;;;5101866;28;19972;-64
2022/10/24 14:17:07;;;;;;;;;;;19.70;99.90;;;;;;5094035;28;19966;-64
2022/10/24 14:19:39;;;;;;;;;;;19.80;99.90;;;;;;5104452;28;19965;-64
2022/10/24 14:22:18;;;;;;;;;;;19.80;99.90;;;;;;5111323;28;19966;-64
2022/10/24 14:24:46;;;;;;;;;;;19.90;99.90;;;;;;5091355;28;21448;-64
2022/10/24 14:27:14;;;;;;;;;;;19.90;99.90;;;;;;5092074;28;19969;-65
2022/10/24 14:29:50;;;;;;;;;;;19.80;99.90;;;;;;5082980;28;19963;-64
2022/10/24 14:32:19;;;;;;;;;;;19.70;99.90;;;;;;5082110;28;19966;-64
2022/10/24 14:34:48;;;;;;;;;;;19.70;99.90;;;;;;5068267;28;19967;-66